Bargersville, Indiana
Current Conditions -  °F | °C
As of 8:54 PM on Friday 19 Dec 2014 (Local Time) from KIND Reporting Station
Overcast Overcast  
Wind Chill: 29°   Ceiling: 2500
Heat Index: 29°   Visibility: 8mi
Dew Point: 24°   Wind: 3mph
Humidity: 82%   Direction: 50°NE
Pressure: 30.27"   Gusts: NA
Location:  39.52°N, 86.17°W
Report Text: KIND 200154Z 05003KT 8SM OVC025 M02/M04 A3027 RMK AO2 SLP261 T10171044
Loading
Personal Weather Stations






























Interactive Weather Map New forecast layout! Learn more

10-Day Weather Forecast

Advertisements
Track Severe Weather on mobile